Time;durP1;ratioP1;P1;durP2;ratioP2;P2;SDS_P1;SDS_P2;PMS_P1;PMS_P2;Temp;Humidity;BMP_temperature;BMP_pressure;BME280_temperature;BME280_humidity;BME280_pressure;Samples;Min_cycle;Max_cycle;Signal;HPM_P1;HPM_P2
2021/06/07 00:01:57;;;;;;;8.20;4.20;;;;;;;15.10;75.98;100453.30;1709156;84;21171;-79
2021/06/07 00:04:26;;;;;;;7.83;5.10;;;;;;;15.13;75.97;100454.36;1708990;84;20888;-79
2021/06/07 00:06:54;;;;;;;5.50;4.75;;;;;;;15.16;76.29;100459.86;1708896;84;21042;-79
2021/06/07 00:09:23;;;;;;;8.03;5.28;;;;;;;15.17;76.27;100453.63;1708813;84;21445;-79
2021/06/07 00:11:54;;;;;;;9.05;4.65;;;;;;;15.16;75.85;100461.19;1709197;82;20971;-79
2021/06/07 00:14:30;;;;;;;6.75;5.92;;;;;;;15.16;75.85;100461.19;1687724;84;20873;-79
2021/06/07 00:16:57;;;;;;;6.50;5.90;;;;;;;15.16;75.98;100457.71;1709099;84;24228;-78
2021/06/07 00:19:28;;;;;;;8.08;5.42;;;;;;;15.15;75.99;100461.33;1712737;82;20892;-79
2021/06/07 00:21:57;;;;;;;8.30;5.45;;;;;;;15.16;75.86;100461.67;1716500;83;20943;-80
2021/06/07 00:24:25;;;;;;;7.60;4.78;;;;;;;15.18;75.92;100464.55;1716506;82;21241;-79
2021/06/07 00:26:55;;;;;;;5.92;4.37;;;;;;;15.19;75.80;100460.13;1716397;83;21446;-79
2021/06/07 00:29:22;;;;;;;7.42;4.25;;;;;;;15.21;75.64;100458.20;1716311;82;20940;-78
2021/06/07 00:31:50;;;;;;;5.95;4.17;;;;;;;15.23;75.74;100457.10;1716440;82;21018;-77
2021/06/07 00:34:17;;;;;;;8.83;4.55;;;;;;;15.26;75.78;100460.80;1716383;82;20955;-80
2021/06/07 00:36:46;;;;;;;5.55;5.05;;;;;;;15.31;75.71;100460.42;1716546;82;20932;-80
2021/06/07 00:39:15;;;;;;;5.75;5.25;;;;;;;15.34;75.53;100458.86;1716485;82;21197;-80
2021/06/07 00:41:45;;;;;;;10.05;5.00;;;;;;;15.36;75.95;100463.51;1716684;83;21493;-80
2021/06/07 00:44:15;;;;;;;6.12;4.67;;;;;;;15.36;75.95;100463.51;1716449;83;20916;-79
2021/06/07 00:46:42;;;;;;;5.65;4.60;;;;;;;15.39;75.63;100462.44;1716603;83;21461;-79
2021/06/07 00:49:09;;;;;;;10.35;4.87;;;;;;;15.41;75.40;100460.52;1716443;83;20975;-80
2021/06/07 00:51:38;;;;;;;7.92;4.70;;;;;;;15.40;75.32;100458.82;1716462;83;21362;-80
2021/06/07 00:54:06;;;;;;;6.78;3.85;;;;;;;15.43;75.29;100462.52;1716288;83;20888;-80
2021/06/07 00:56:33;;;;;;;4.83;4.33;;;;;;;15.45;75.37;100464.55;1716432;83;21006;-80
2021/06/07 00:59:02;;;;;;;9.45;4.20;;;;;;;15.54;75.25;100467.29;1716368;83;20955;-80
2021/06/07 01:01:30;;;;;;;8.20;5.15;;;;;;;15.54;75.25;100467.29;1716388;83;20979;-79
2021/06/07 01:03:59;;;;;;;6.85;3.98;;;;;;;15.58;75.25;100467.02;1716434;83;21052;-78
2021/06/07 01:06:26;;;;;;;9.10;5.12;;;;;;;15.61;74.93;100474.72;1716577;83;20848;-79
2021/06/07 01:08:55;;;;;;;5.83;4.17;;;;;;;15.63;74.65;100464.82;1716351;82;21345;-79
2021/06/07 01:11:22;;;;;;;4.97;3.87;;;;;;;15.64;74.50;100467.84;1716384;83;21027;-79
2021/06/07 01:13:51;;;;;;;6.67;3.90;;;;;;;15.65;74.41;100465.53;1716479;83;21444;-79
2021/06/07 01:16:20;;;;;;;6.47;4.62;;;;;;;15.65;74.49;100465.08;1716438;83;21007;-80
2021/06/07 01:18:47;;;;;;;5.60;3.90;;;;;;;15.65;74.49;100465.08;1715094;83;21000;-80
2021/06/07 01:21:18;;;;;;;5.70;4.20;;;;;;;15.66;74.26;100462.77;1708887;84;20976;-79
2021/06/07 01:23:47;;;;;;;7.33;4.65;;;;;;;15.66;74.27;100463.27;1744558;81;21398;-78
2021/06/07 01:26:16;;;;;;;8.25;4.97;;;;;;;15.64;74.30;100461.23;1744598;82;20983;-79
2021/06/07 01:28:43;;;;;;;9.08;6.03;;;;;;;15.63;74.34;100459.53;1744500;81;21986;-80
2021/06/07 01:31:11;;;;;;;7.87;4.97;;;;;;;15.65;74.36;100458.92;1744475;81;21003;-80
2021/06/07 01:33:42;;;;;;;10.43;6.72;;;;;;;15.66;74.65;100460.13;1744537;81;21482;-81
2021/06/07 01:36:09;;;;;;;9.25;5.90;;;;;;;15.66;74.65;100460.13;1745186;81;20881;-81
2021/06/07 01:38:36;;;;;;;8.53;4.87;;;;;;;15.68;74.24;100459.52;1744493;81;20850;-81
2021/06/07 01:41:06;;;;;;;7.55;4.90;;;;;;;15.70;74.20;100456.27;1744764;80;21124;-81
2021/06/07 01:43:33;;;;;;;11.28;6.03;;;;;;;15.69;74.17;100450.61;1745006;81;21458;-81
2021/06/07 01:46:00;;;;;;;10.48;6.58;;;;;;;15.74;73.92;100451.11;1744733;80;20972;-80
2021/06/07 01:48:27;;;;;;;9.25;6.47;;;;;;;15.74;73.92;100451.11;1745067;82;20952;-81
2021/06/07 01:50:56;;;;;;;10.75;5.35;;;;;;;15.78;73.97;100456.12;1744794;81;20933;-80
2021/06/07 01:53:24;;;;;;;7.67;4.72;;;;;;;15.78;73.90;100453.48;1745026;81;21118;-81
2021/06/07 01:55:54;;;;;;;6.30;4.65;;;;;;;15.79;73.83;100457.33;1744755;82;20837;-82
2021/06/07 01:58:21;;;;;;;5.22;4.60;;;;;;;15.78;73.80;100461.41;1745155;82;20901;-82
2021/06/07 02:01:02;;;;;;;6.90;5.05;;;;;;;15.77;73.92;100459.75;1744720;81;20893;-80
2021/06/07 02:03:29;;;;;;;6.80;5.42;;;;;;;15.75;73.94;100462.02;1744680;81;20841;-80
2021/06/07 02:05:59;;;;;;;5.75;5.15;;;;;;;15.76;74.03;100462.86;1744899;80;21319;-79
2021/06/07 02:08:30;;;;;;;9.53;4.10;;;;;;;15.76;74.05;100458.89;1744943;82;20842;-79
2021/06/07 02:11:02;;;;;;;13.08;5.37;;;;;;;15.77;74.02;100456.62;1744694;81;20920;-81
2021/06/07 02:13:29;;;;;;;7.97;4.75;;;;;;;15.75;74.03;100457.23;1744961;81;20853;-78
2021/06/07 02:16:00;;;;;;;5.47;4.33;;;;;;;15.74;74.12;100451.60;1744787;82;20936;-79
2021/06/07 02:18:27;;;;;;;6.70;5.17;;;;;;;15.78;74.14;100462.24;1745226;81;21095;-78
2021/06/07 02:20:54;;;;;;;8.33;4.22;;;;;;;15.80;74.11;100457.67;1744655;81;20968;-80
2021/06/07 02:23:21;;;;;;;9.38;5.05;;;;;;;15.80;74.09;100455.02;1745110;82;20964;-79
2021/06/07 02:25:48;;;;;;;8.15;4.90;;;;;;;15.82;74.09;100468.13;1744768;82;20885;-78
2021/06/07 02:28:16;;;;;;;6.00;5.08;;;;;;;15.82;74.40;100464.98;1745045;82;20873;-79
2021/06/07 02:30:44;;;;;;;12.88;6.10;;;;;;;15.82;74.16;100463.67;1744604;82;21473;-79
2021/06/07 02:33:10;;;;;;;7.70;5.47;;;;;;;15.80;74.29;100469.56;1744894;81;21011;-79
2021/06/07 02:35:38;;;;;;;6.17;5.33;;;;;;;15.82;74.23;100478.70;1744656;82;20924;-80
2021/06/07 02:38:05;;;;;;;9.25;5.92;;;;;;;15.82;74.23;100478.70;1744919;81;21505;-79
2021/06/07 02:40:33;;;;;;;8.98;5.62;;;;;;;15.81;74.15;100479.66;1744846;81;20932;-79
2021/06/07 02:43:00;;;;;;;7.42;6.20;;;;;;;15.80;74.33;100472.21;1744722;81;21158;-80
2021/06/07 02:45:28;;;;;;;7.37;5.55;;;;;;;15.84;74.41;100480.25;1744806;82;20858;-79
2021/06/07 02:47:58;;;;;;;9.05;6.03;;;;;;;15.86;74.54;100482.28;1744979;81;20917;-79
2021/06/07 02:50:34;;;;;;;13.03;5.50;;;;;;;15.90;74.64;100479.73;1744625;81;20861;-80
2021/06/07 02:53:01;;;;;;;7.22;5.55;;;;;;;15.95;74.52;100480.66;1744977;80;20853;-79
2021/06/07 02:55:33;;;;;;;9.75;5.80;;;;;;;16.05;74.08;100468.34;1744655;82;21092;-80
2021/06/07 02:58:00;;;;;;;7.35;5.70;;;;;;;16.05;74.08;100468.34;1744825;81;21063;-79
2021/06/07 03:00:46;;;;;;;9.50;5.70;;;;;;;16.11;73.85;100466.47;1744567;80;20944;-79
2021/06/07 03:03:13;;;;;;;11.15;7.17;;;;;;;16.15;73.60;100473.17;1744332;81;20972;-80
2021/06/07 03:05:41;;;;;;;12.30;6.78;;;;;;;16.21;73.40;100477.13;1744716;82;20853;-79
2021/06/07 03:08:11;;;;;;;12.55;6.72;;;;;;;16.24;73.26;100474.20;1744639;81;21374;-79
2021/06/07 03:10:38;;;;;;;14.03;7.83;;;;;;;16.27;73.23;100472.59;1744584;82;20893;-79
2021/06/07 03:13:06;;;;;;;13.90;7.58;;;;;;;16.34;73.45;100473.77;1744586;81;20881;-78
2021/06/07 03:15:33;;;;;;;16.15;8.60;;;;;;;16.34;73.45;100473.77;1744627;82;20941;-79
2021/06/07 03:18:00;;;;;;;10.40;7.85;;;;;;;16.40;73.22;100474.20;1744815;80;21043;-79
2021/06/07 03:20:30;;;;;;;11.57;7.90;;;;;;;16.44;73.40;100476.44;1744633;81;21149;-80
2021/06/07 03:23:00;;;;;;;15.43;8.78;;;;;;;16.49;73.44;100471.58;1744616;82;20881;-78
2021/06/07 03:25:28;;;;;;;8.85;7.87;;;;;;;16.63;72.87;100471.72;1744708;80;20873;-80
2021/06/07 03:27:56;;;;;;;12.45;8.00;;;;;;;16.63;72.87;100471.72;1744881;82;20912;-79
2021/06/07 03:30:24;;;;;;;9.63;8.23;;;;;;;16.71;72.69;100465.73;1744682;81;21467;-79
2021/06/07 03:32:51;;;;;;;10.68;9.30;;;;;;;16.90;72.85;100467.13;1745003;81;21090;-79
2021/06/07 03:35:18;;;;;;;12.15;9.80;;;;;;;16.90;72.85;100467.13;1744638;81;20881;-80
2021/06/07 03:37:45;;;;;;;19.30;9.93;;;;;;;16.99;72.51;100471.61;1709302;84;20892;-81
2021/06/07 03:40:17;;;;;;;21.15;12.43;;;;;;;17.13;71.94;100464.23;1708793;84;21464;-80
2021/06/07 03:42:46;;;;;;;23.67;14.43;;;;;;;17.13;71.94;100464.23;1745192;81;20968;-82
2021/06/07 03:45:15;;;;;;;22.10;15.93;;;;;;;17.21;71.64;100460.41;1744665;82;21148;-81
2021/06/07 03:47:43;;;;;;;31.20;20.65;;;;;;;17.29;71.66;100465.83;1744576;82;20920;-83
2021/06/07 03:50:11;;;;;;;29.98;22.02;;;;;;;17.40;71.40;100468.34;1744892;81;20968;-83
2021/06/07 03:52:38;;;;;;;38.25;23.90;;;;;;;17.55;71.33;100466.60;1745046;82;20932;-82
2021/06/07 03:55:09;;;;;;;43.87;29.55;;;;;;;17.69;70.79;100465.33;1744932;81;20889;-83
2021/06/07 03:57:36;;;;;;;47.25;32.95;;;;;;;17.83;70.25;100465.39;1745131;82;21172;-82
2021/06/07 04:00:09;;;;;;;46.05;33.00;;;;;;;17.95;69.54;100464.27;1745035;80;20968;-81
2021/06/07 04:02:42;;;;;;;50.83;34.23;;;;;;;18.07;69.10;100463.09;1744839;82;21046;-81
2021/06/07 04:05:10;;;;;;;50.40;33.60;;;;;;;18.16;68.66;100459.59;1745075;82;20897;-80
2021/06/07 04:07:37;;;;;;;43.98;32.17;;;;;;;18.21;68.34;100458.66;1745278;81;20881;-80
2021/06/07 04:10:07;;;;;;;46.00;29.12;;;;;;;18.29;68.09;100467.70;1745167;81;21155;-78
2021/06/07 04:12:35;;;;;;;39.35;27.30;;;;;;;18.34;67.85;100468.95;1744802;82;20881;-79
2021/06/07 04:15:06;;;;;;;33.85;25.05;;;;;;;18.38;67.77;100461.52;1744523;82;20893;-80
2021/06/07 04:17:33;;;;;;;37.08;25.88;;;;;;;18.45;67.70;100466.58;1744671;82;21477;-80
2021/06/07 04:20:01;;;;;;;46.98;29.90;;;;;;;18.53;67.71;100469.84;1744652;81;21019;-81
2021/06/07 04:22:27;;;;;;;41.65;29.92;;;;;;;18.59;67.59;100475.91;1744664;82;21128;-80
2021/06/07 04:24:55;;;;;;;42.93;32.28;;;;;;;18.65;67.44;100476.61;1744563;82;21023;-80
2021/06/07 04:27:23;;;;;;;53.35;33.67;;;;;;;18.76;67.30;100471.09;1744698;80;21046;-81
2021/06/07 04:29:50;;;;;;;45.92;34.00;;;;;;;18.95;67.07;100475.50;1744782;81;21000;-80
2021/06/07 04:32:17;;;;;;;47.13;31.62;;;;;;;19.20;66.80;100470.43;1744832;81;20846;-81
2021/06/07 04:34:44;;;;;;;40.10;28.45;;;;;;;19.57;66.08;100474.25;1744723;82;21573;-80
2021/06/07 04:37:11;;;;;;;42.62;26.02;;;;;;;19.95;64.87;100474.89;1744592;81;21003;-80
2021/06/07 04:39:38;;;;;;;51.45;30.88;;;;;;;20.40;63.73;100475.13;1744576;82;20920;-79
2021/06/07 04:42:06;;;;;;;52.67;30.50;;;;;;;20.73;62.83;100474.47;1744695;81;20929;-81
2021/06/07 04:44:33;;;;;;;45.43;31.40;;;;;;;20.95;61.74;100475.19;1744787;82;20929;-81
2021/06/07 04:47:01;;;;;;;41.25;28.35;;;;;;;21.07;61.12;100471.20;1744646;82;21124;-80
2021/06/07 04:49:28;;;;;;;39.55;28.20;;;;;;;21.36;60.65;100473.90;1744807;82;20936;-80
2021/06/07 04:51:55;;;;;;;41.55;27.30;;;;;;;21.60;59.80;100474.95;1745372;82;20920;-80
2021/06/07 04:54:22;;;;;;;41.02;27.95;;;;;;;21.78;58.87;100466.25;1745924;80;20976;-81
2021/06/07 04:56:51;;;;;;;36.30;26.35;;;;;;;21.85;58.20;100472.57;1747018;81;20924;-79
2021/06/07 04:59:19;;;;;;;43.80;27.60;;;;;;;21.85;58.09;100473.91;1747370;81;21567;-79
2021/06/07 05:01:46;;;;;;;35.68;23.75;;;;;;;21.81;58.25;100474.41;1746153;82;20889;-79
2021/06/07 05:04:12;;;;;;;33.33;24.32;;;;;;;21.73;58.36;100472.60;1744808;81;21010;-80
2021/06/07 05:06:40;;;;;;;33.53;24.98;;;;;;;21.64;58.63;100479.78;1744589;82;20928;-79
2021/06/07 05:09:07;;;;;;;36.53;23.22;;;;;;;21.57;58.89;100474.78;1744719;82;20905;-80
2021/06/07 05:11:33;;;;;;;32.42;22.22;;;;;;;21.51;59.13;100478.94;1744956;81;21363;-81
2021/06/07 05:14:00;;;;;;;30.62;21.07;;;;;;;21.44;59.50;100476.61;1744482;82;20932;-81
2021/06/07 05:16:27;;;;;;;41.35;22.60;;;;;;;21.41;59.57;100484.95;1744844;81;20842;-82
2021/06/07 05:18:54;;;;;;;38.48;21.68;;;;;;;21.38;59.84;100481.23;1744522;82;20948;-81
2021/06/07 05:21:21;;;;;;;33.10;22.85;;;;;;;21.37;59.84;100480.09;1753711;81;20959;-81
2021/06/07 05:23:49;;;;;;;32.80;24.35;;;;;;;21.33;60.02;100479.06;1757624;80;21132;-79
2021/06/07 05:26:16;;;;;;;47.20;28.32;;;;;;;21.31;60.08;100484.23;1758149;80;21381;-81
2021/06/07 05:28:43;;;;;;;38.25;25.90;;;;;;;21.28;60.18;100483.25;1757920;81;21003;-81
2021/06/07 05:31:11;;;;;;;43.60;30.32;;;;;;;21.23;60.39;100485.08;1757771;81;20924;-80
2021/06/07 05:35:18;;;;;;;52.00;34.03;;;;;;;21.24;60.53;100485.41;1797942;79;22640;-80
2021/06/07 05:37:45;;;;;;;40.40;30.60;;;;;;;21.21;60.34;100482.22;1758310;80;20928;-79
2021/06/07 05:40:13;;;;;;;40.05;28.87;;;;;;;21.27;59.72;100482.90;1758361;80;21147;-81
2021/06/07 05:42:41;;;;;;;48.60;29.90;;;;;;;21.29;59.68;100483.06;1758268;80;20884;-79
2021/06/07 05:45:09;;;;;;;41.48;28.40;;;;;;;21.32;59.22;100481.89;1758266;80;20919;-79
2021/06/07 05:47:37;;;;;;;44.77;28.15;;;;;;;21.38;59.08;100489.24;1758107;80;20995;-79
2021/06/07 05:50:07;;;;;;;47.27;30.95;;;;;;;21.44;59.12;100480.61;1758333;80;20975;-81
2021/06/07 05:52:34;;;;;;;44.18;28.60;;;;;;;21.52;59.30;100487.30;1758525;80;21176;-79
2021/06/07 05:55:01;;;;;;;36.20;25.62;;;;;;;21.62;59.00;100485.78;1758269;80;20928;-80
2021/06/07 05:57:28;;;;;;;37.78;31.37;;;;;;;21.75;58.63;100485.28;1758525;80;20853;-80
2021/06/07 05:59:55;;;;;;;46.37;38.92;;;;;;;21.92;57.78;100487.41;1757966;80;21406;-81
2021/06/07 06:02:23;;;;;;;54.20;44.08;;;;;;;22.13;57.05;100487.71;1758553;81;20849;-81
2021/06/07 06:04:50;;;;;;;53.40;45.17;;;;;;;22.43;56.51;100485.81;1758234;80;21087;-81
2021/06/07 06:07:17;;;;;;;55.20;47.67;;;;;;;22.75;55.38;100486.19;1758797;80;20990;-81
2021/06/07 06:09:45;;;;;;;50.15;40.30;;;;;;;23.12;54.57;100486.84;1758351;80;21402;-81
2021/06/07 06:12:12;;;;;;;44.93;35.13;;;;;;;23.52;53.76;100487.56;1758652;80;20928;-82
2021/06/07 06:14:39;;;;;;;40.43;32.10;;;;;;;23.89;52.88;100481.06;1758191;81;21010;-80
2021/06/07 06:17:06;;;;;;;32.95;24.43;;;;;;;24.22;52.07;100478.87;1758665;80;21777;-80
2021/06/07 06:19:33;;;;;;;18.75;16.87;;;;;;;24.64;51.25;100484.09;1758418;80;21464;-78
2021/06/07 06:22:03;;;;;;;17.50;15.78;;;;;;;25.03;50.11;100477.50;1758495;80;21307;-74
2021/06/07 06:24:29;;;;;;;16.52;14.68;;;;;;;25.38;49.23;100476.34;1758170;81;20948;-76
2021/06/07 06:26:55;;;;;;;15.15;12.20;;;;;;;25.69;48.92;100481.88;1758903;80;20912;-73
2021/06/07 06:29:22;;;;;;;12.30;10.78;;;;;;;26.10;47.68;100474.42;1758381;80;21191;-72
2021/06/07 06:31:49;;;;;;;14.10;9.10;;;;;;;26.41;47.11;100473.48;1758250;80;21561;-73
2021/06/07 06:34:16;;;;;;;7.90;7.10;;;;;;;26.67;46.20;100471.42;1752379;81;20928;-72
2021/06/07 06:36:43;;;;;;;8.38;6.55;;;;;;;26.73;45.51;100471.15;1745193;81;21015;-71
2021/06/07 06:39:10;;;;;;;11.78;8.48;;;;;;;26.80;45.53;100474.69;1745493;81;21307;-74
2021/06/07 06:41:37;;;;;;;11.68;8.08;;;;;;;26.94;45.26;100472.85;1745265;81;21216;-73
2021/06/07 06:44:05;;;;;;;12.05;8.65;;;;;;;27.15;44.31;100471.05;1745036;82;20964;-74
2021/06/07 06:46:32;;;;;;;10.13;7.72;;;;;;;27.24;43.56;100475.23;1744597;81;20901;-74
2021/06/07 06:49:00;;;;;;;6.95;5.05;;;;;;;27.34;43.81;100470.78;1744631;81;20901;-72
2021/06/07 06:51:27;;;;;;;5.33;4.20;;;;;;;27.52;43.47;100476.38;1744767;81;20933;-75
2021/06/07 06:53:57;;;;;;;5.60;3.92;;;;;;;27.70;42.75;100473.05;1744641;81;21146;-74
2021/06/07 06:56:24;;;;;;;6.08;3.70;;;;;;;27.84;42.74;100473.40;1744579;81;21035;-73
2021/06/07 06:58:51;;;;;;;5.50;3.62;;;;;;;27.92;42.23;100471.52;1744871;81;20877;-72
2021/06/07 07:01:17;;;;;;;5.55;2.72;;;;;;;27.99;42.38;100479.06;1744546;81;20878;-72
2021/06/07 07:03:47;;;;;;;5.65;2.70;;;;;;;27.98;42.19;100475.55;1744713;81;20980;-72
2021/06/07 07:06:13;;;;;;;5.05;2.70;;;;;;;27.98;42.24;100481.47;1744884;81;21136;-73
2021/06/07 07:08:41;;;;;;;3.50;2.37;;;;;;;27.89;42.47;100470.89;1745002;81;21407;-76
2021/06/07 07:11:10;;;;;;;4.20;2.67;;;;;;;27.77;42.45;100479.78;1744850;81;20842;-75
2021/06/07 07:13:39;;;;;;;5.03;2.60;;;;;;;27.65;42.45;100482.29;1745012;80;20976;-78
2021/06/07 07:16:05;;;;;;;5.35;2.92;;;;;;;27.64;43.00;100480.65;1745020;81;20972;-76
2021/06/07 07:18:32;;;;;;;11.20;2.37;;;;;;;27.68;43.20;100475.98;1745492;81;21103;-76
2021/06/07 07:21:00;;;;;;;3.85;3.08;;;;;;;27.66;43.01;100480.75;1745458;81;20893;-75
2021/06/07 07:23:26;;;;;;;4.85;2.40;;;;;;;27.55;42.80;100478.67;1744977;82;21485;-76
2021/06/07 07:25:53;;;;;;;3.87;1.95;;;;;;;27.39;42.70;100477.23;1744555;81;20889;-76
2021/06/07 07:28:20;;;;;;;2.77;2.00;;;;;;;27.46;42.62;100482.09;1744984;81;21398;-78
2021/06/07 07:30:47;;;;;;;2.37;2.15;;;;;;;27.68;41.80;100475.98;1744358;81;21563;-76
2021/06/07 07:33:14;;;;;;;3.85;2.05;;;;;;;28.11;41.39;100480.09;1744910;80;20858;-77
2021/06/07 07:35:41;;;;;;;2.85;1.95;;;;;;;28.65;39.98;100481.59;1744598;81;20982;-78
2021/06/07 07:38:08;;;;;;;4.55;1.85;;;;;;;29.05;39.21;100482.72;1744915;81;20944;-78
2021/06/07 07:40:38;;;;;;;1.85;1.65;;;;;;;29.50;39.26;100475.91;1744894;80;21382;-79
2021/06/07 07:43:04;;;;;;;3.50;1.20;;;;;;;29.95;38.25;100481.14;1745097;82;21120;-76
2021/06/07 07:45:31;;;;;;;6.20;2.47;;;;;;;30.34;36.88;100479.60;1744590;81;20865;-77
2021/06/07 07:48:00;;;;;;;3.58;2.25;;;;;;;30.45;37.12;100480.19;1744983;81;20980;-80
2021/06/07 07:50:27;;;;;;;10.43;2.67;;;;;;;30.58;36.58;100480.03;1756984;79;21397;-74
2021/06/07 07:52:54;;;;;;;2.72;1.95;;;;;;;30.73;35.89;100478.81;1780753;79;21385;-77
2021/06/07 07:55:25;;;;;;;3.47;1.95;;;;;;;30.88;36.19;100472.50;1780789;79;21547;-75
2021/06/07 07:57:52;;;;;;;2.00;1.70;;;;;;;30.96;35.31;100474.86;1780624;79;20904;-75
2021/06/07 08:00:24;;;;;;;7.87;2.20;;;;;;;30.75;35.28;100466.70;1781014;79;20875;-74
2021/06/07 08:02:52;;;;;;;2.25;0.90;;;;;;;30.53;34.72;100460.95;1780891;80;20852;-75
2021/06/07 08:05:19;;;;;;;3.42;1.05;;;;;;;30.33;34.97;100465.79;1780788;80;21290;-76
2021/06/07 08:07:49;;;;;;;2.72;0.70;;;;;;;30.04;35.73;100463.28;1780779;79;21116;-75
2021/06/07 08:10:17;;;;;;;2.70;1.12;;;;;;;29.82;36.34;100465.05;1780916;80;20911;-77
2021/06/07 08:12:46;;;;;;;3.67;1.02;;;;;;;29.79;36.53;100467.36;1780851;80;20916;-78
2021/06/07 08:15:15;;;;;;;0.88;0.85;;;;;;;29.80;36.56;100467.67;1780742;79;21416;-76
2021/06/07 08:17:41;;;;;;;3.17;0.60;;;;;;;29.88;35.85;100469.57;1780941;79;20848;-76
2021/06/07 08:20:11;;;;;;;1.10;0.68;;;;;;;30.06;35.49;100472.81;1781172;79;21109;-76
2021/06/07 08:22:39;;;;;;;3.08;1.22;;;;;;;30.23;35.74;100472.21;1780774;80;20868;-74
2021/06/07 08:25:07;;;;;;;2.85;2.45;;;;;;;30.20;35.68;100469.97;1781024;79;20971;-76
2021/06/07 08:27:33;;;;;;;3.92;2.90;;;;;;;30.03;35.71;100470.54;1780690;80;20970;-77
2021/06/07 08:30:00;;;;;;;5.67;2.17;;;;;;;30.00;36.12;100469.64;1781019;80;20899;-76
2021/06/07 08:32:27;;;;;;;6.35;1.60;;;;;;;30.07;36.41;100470.39;1780766;80;22007;-77
2021/06/07 08:34:54;;;;;;;6.62;1.52;;;;;;;30.19;35.76;100461.00;1782978;79;20963;-76
2021/06/07 08:37:21;;;;;;;2.95;1.30;;;;;;;30.03;35.17;100458.91;1786714;80;20844;-78
2021/06/07 08:39:48;;;;;;;3.77;1.32;;;;;;;29.81;35.57;100457.15;1786812;80;20919;-77
2021/06/07 08:42:16;;;;;;;7.70;2.22;;;;;;;29.57;36.46;100464.20;1786599;80;21547;-77
2021/06/07 08:44:43;;;;;;;1.92;1.72;;;;;;;29.49;36.97;100453.16;1786907;79;21085;-76
2021/06/07 08:47:10;;;;;;;5.08;2.62;;;;;;;29.32;37.66;100460.97;1786495;79;20845;-76
2021/06/07 08:49:36;;;;;;;6.53;2.95;;;;;;;29.01;37.98;100463.13;1788747;80;20969;-77
2021/06/07 08:52:04;;;;;;;4.62;2.50;;;;;;;28.72;38.23;100465.36;1787350;80;20959;-75
2021/06/07 08:54:33;;;;;;;3.00;2.70;;;;;;;28.36;38.50;100459.99;1786609;79;21376;-76
2021/06/07 08:56:59;;;;;;;6.42;3.08;;;;;;;27.96;39.20;100466.02;1786507;80;21155;-77
2021/06/07 08:59:26;;;;;;;4.87;4.33;;;;;;;27.54;40.21;100461.36;1786542;79;20907;-76
2021/06/07 09:01:55;;;;;;;5.62;4.95;;;;;;;27.21;40.61;100463.52;1786616;79;20975;-75
2021/06/07 09:04:24;;;;;;;7.50;5.10;;;;;;;26.87;40.99;100456.69;1786541;79;20963;-76
2021/06/07 09:06:53;;;;;;;7.25;4.80;;;;;;;26.56;41.72;100455.87;1786559;79;20896;-77
2021/06/07 09:09:25;;;;;;;9.03;5.45;;;;;;;26.30;42.90;100453.85;1786559;80;21152;-81
2021/06/07 09:12:00;;;;;;;8.75;5.25;;;;;;;26.06;43.64;100459.22;1786664;80;20856;-80
2021/06/07 09:14:33;;;;;;;6.62;4.90;;;;;;;25.81;43.81;100454.77;1786739;79;20943;-81
2021/06/07 09:17:00;;;;;;;6.50;4.58;;;;;;;25.61;44.30;100459.51;1786771;80;20892;-84
2021/06/07 09:19:30;;;;;;;9.63;5.30;;;;;;;25.43;44.43;100455.95;1786859;80;20923;-80
2021/06/07 09:22:22;;;;;;;8.83;5.47;;;;;;;25.25;45.65;100445.34;1786928;80;21102;-79
2021/06/07 09:25:10;;;;;;;9.63;6.22;;;;;;;25.10;45.42;100445.37;1786566;80;21325;-77
2021/06/07 09:27:37;;;;;;;11.43;6.95;;;;;;;24.89;45.47;100446.20;1786519;80;20951;-78
2021/06/07 09:30:28;;;;;;;12.37;7.78;;;;;;;24.74;45.91;100447.58;1786633;79;20907;-76
2021/06/07 09:33:26;;;;;;;20.08;10.40;;;;;;;24.78;46.29;100450.20;1786188;79;20923;-76
2021/06/07 09:36:20;;;;;;;15.05;10.23;;;;;;;25.08;46.94;100444.73;1751159;82;21828;-76
2021/06/07 09:39:01;;;;;;;13.83;8.83;;;;;;;25.57;47.01;100438.09;1733662;82;20992;-75
2021/06/07 09:41:33;;;;;;;9.78;7.00;;;;;;;26.22;44.54;100424.47;1733421;81;20963;-74
2021/06/07 09:44:01;;;;;;;10.55;6.42;;;;;;;26.51;43.53;100427.90;1726245;82;20901;-75
2021/06/07 09:46:30;;;;;;;7.75;6.00;;;;;;;26.67;42.62;100424.34;1752257;82;21339;-76
2021/06/07 09:49:12;;;;;;;8.90;6.45;;;;;;;26.96;42.42;100421.00;1752214;82;21746;-76
2021/06/07 09:51:44;;;;;;;13.80;7.72;;;;;;;27.02;42.85;100417.49;1752075;82;20924;-76
2021/06/07 09:54:13;;;;;;;12.50;6.00;;;;;;;27.06;41.79;100414.70;1749616;82;20881;-75
2021/06/07 09:56:54;;;;;;;8.88;5.50;;;;;;;27.01;41.44;100419.03;1752094;82;20873;-75
2021/06/07 09:59:40;;;;;;;21.97;8.15;;;;;;;26.87;42.03;100423.58;1752572;82;21469;-74
2021/06/07 10:02:17;;;;;;;20.62;7.87;;;;;;;26.65;45.34;100429.63;1752198;82;21199;-73
2021/06/07 10:04:58;;;;;;;16.15;7.87;;;;;;;26.23;47.78;100429.66;1752372;82;20975;-75
2021/06/07 10:07:26;;;;;;;13.58;6.42;;;;;;;25.77;50.12;100426.66;1751993;82;20869;-77
2021/06/07 10:10:20;;;;;;;18.02;7.60;;;;;;;25.37;50.75;100427.71;1752364;82;20975;-74
2021/06/07 10:12:48;;;;;;;15.85;6.90;;;;;;;24.98;50.91;100421.73;1752305;82;20995;-75
2021/06/07 10:15:32;;;;;;;11.95;6.12;;;;;;;24.48;52.58;100429.32;1752369;82;21116;-75
2021/06/07 10:18:02;;;;;;;8.10;4.42;;;;;;;24.10;53.72;100433.44;1752161;82;20964;-77
2021/06/07 10:23:00;;;;;;;7.83;4.72;;;;;;;23.43;53.78;100428.90;1752329;82;20909;-77
2021/06/07 10:25:27;;;;;;;7.70;3.72;;;;;;;23.20;56.44;100421.73;1752390;82;21354;-78
2021/06/07 10:27:54;;;;;;;5.70;3.50;;;;;;;23.04;56.79;100420.53;1752411;82;21176;-77
2021/06/07 10:30:23;;;;;;;12.28;3.45;;;;;;;22.91;56.83;100421.91;1752544;82;21433;-76
2021/06/07 10:32:51;;;;;;;5.20;3.37;;;;;;;22.79;55.94;100417.14;1752447;82;21430;-78
2021/06/07 10:35:36;;;;;;;5.90;2.80;;;;;;;22.64;55.64;100420.58;1744817;82;20881;-77
2021/06/07 10:38:09;;;;;;;6.90;3.00;;;;;;;22.51;55.09;100420.31;1725705;81;26600;-78
2021/06/07 10:40:42;;;;;;;6.20;4.00;;;;;;;22.38;56.25;100420.05;1725493;81;21157;-77
2021/06/07 10:43:11;;;;;;;5.15;3.42;;;;;;;22.25;58.76;100420.08;1725385;83;20862;-74
2021/06/07 10:45:40;;;;;;;5.60;3.25;;;;;;;22.18;61.20;100426.27;1725724;83;20873;-74
2021/06/07 10:48:09;;;;;;;7.00;4.15;;;;;;;22.09;62.53;100420.95;1725442;81;20953;-75
2021/06/07 10:50:47;;;;;;;9.70;4.30;;;;;;;22.05;63.33;100422.80;1725454;83;20992;-74
2021/06/07 10:53:25;;;;;;;10.28;4.00;;;;;;;21.98;64.16;100425.33;1779923;80;21357;-73
2021/06/07 10:56:05;;;;;;;9.95;5.10;;;;;;;21.91;64.71;100425.69;1780718;79;20919;-72
2021/06/07 10:58:32;;;;;;;8.43;5.87;;;;;;;21.81;65.89;100426.36;1780317;79;20872;-73
2021/06/07 11:01:01;;;;;;;12.35;5.72;;;;;;;21.71;66.41;100428.72;1780815;80;20927;-72
2021/06/07 11:03:32;;;;;;;13.58;6.40;;;;;;;21.60;64.90;100436.25;1780814;80;20884;-74
2021/06/07 11:06:02;;;;;;;6.92;2.80;;;;;;;21.43;61.65;100422.94;1781224;79;21096;-75
2021/06/07 11:08:32;;;;;;;4.78;3.40;;;;;;;21.09;59.05;100440.37;1780724;80;21314;-73
2021/06/07 11:11:06;;;;;;;10.58;5.72;;;;;;;20.67;59.49;100438.12;1781106;79;20876;-74
2021/06/07 11:13:47;;;;;;;8.08;4.60;;;;;;;20.31;58.65;100433.98;1780950;80;21322;-73
2021/06/07 11:16:42;;;;;;;7.65;4.72;;;;;;;20.06;60.21;100423.21;1781270;79;21006;-75
2021/06/07 11:19:14;;;;;;;7.47;5.25;;;;;;;19.86;58.99;100425.27;1780839;80;21071;-75
2021/06/07 11:21:56;;;;;;;5.83;4.15;;;;;;;19.63;58.38;100420.44;1780997;80;20967;-77
2021/06/07 11:24:39;;;;;;;6.95;4.45;;;;;;;19.52;60.47;100416.70;1780784;80;20904;-75
2021/06/07 11:27:09;;;;;;;15.28;6.72;;;;;;;19.38;63.53;100415.41;1780716;80;21428;-74
2021/06/07 11:29:37;;;;;;;11.75;7.28;;;;;;;19.22;65.40;100415.28;1780715;79;21472;-74
2021/06/07 11:32:14;;;;;;;14.73;7.00;;;;;;;19.12;65.28;100412.72;1780721;79;21520;-73
2021/06/07 11:34:49;;;;;;;9.18;6.50;;;;;;;19.08;65.80;100414.51;1780652;79;20868;-73